createdAt,value
2022-12-08T00:00:01.896Z,71.80
2022-12-08T00:02:30.314Z,70.97
2022-12-08T00:05:21.938Z,72.13
2022-12-08T00:08:29.071Z,71.40
2022-12-08T00:10:57.832Z,64.65
2022-12-08T00:13:25.826Z,68.55
2022-12-08T00:15:52.667Z,69.68
2022-12-08T00:18:21.836Z,69.05
2022-12-08T00:20:59.328Z,69.75
2022-12-08T00:23:29.524Z,68.35
2022-12-08T00:25:57.343Z,68.47
2022-12-08T00:28:24.265Z,73.55
2022-12-08T00:30:58.418Z,72.35
2022-12-08T00:33:25.274Z,71.13
2022-12-08T00:35:51.955Z,72.20
2022-12-08T00:38:21.408Z,69.82
2022-12-08T00:40:48.508Z,67.57
2022-12-08T00:43:17.731Z,73.60
2022-12-08T00:45:44.596Z,71.15
2022-12-08T00:48:13.727Z,72.78
2022-12-08T00:50:40.643Z,71.45
2022-12-08T00:53:09.737Z,72.53
2022-12-08T00:55:36.656Z,69.63
2022-12-08T00:58:03.832Z,69.72
2022-12-08T01:00:32.378Z,72.75
2022-12-08T01:02:59.642Z,68.22
2022-12-08T01:05:29.995Z,75.78
2022-12-08T01:08:07.460Z,71.95
2022-12-08T01:10:38.740Z,70.43
2022-12-08T01:13:05.642Z,74.60
2022-12-08T01:15:48.489Z,71.15
2022-12-08T01:18:19.346Z,66.57
2022-12-08T01:20:56.170Z,65.63
2022-12-08T01:23:23.638Z,70.95
2022-12-08T01:26:08.471Z,70.18
2022-12-08T01:28:38.853Z,67.88
2022-12-08T01:31:19.798Z,68.00
2022-12-08T01:33:48.917Z,68.93
2022-12-08T01:36:31.222Z,69.70
2022-12-08T01:39:08.525Z,63.75
2022-12-08T01:41:45.377Z,60.33
2022-12-08T01:44:12.752Z,67.57
2022-12-08T01:46:44.059Z,64.80
2022-12-08T01:49:21.663Z,60.30
2022-12-08T01:52:13.463Z,61.40
2022-12-08T01:54:48.686Z,65.60
2022-12-08T02:01:36.616Z,62.80
2022-12-08T02:07:45.020Z,62.88
2022-12-08T02:10:16.819Z,66.35
2022-12-08T02:12:43.855Z,65.47
2022-12-08T02:15:11.129Z,66.00
2022-12-08T02:17:40.893Z,65.88
2022-12-08T02:20:53.820Z,66.40
2022-12-08T02:26:04.761Z,58.47
2022-12-08T02:28:51.380Z,61.10
2022-12-08T02:31:57.110Z,63.72
2022-12-08T02:34:36.232Z,62.47
2022-12-08T02:37:12.035Z,61.35
2022-12-08T02:39:59.984Z,61.33
2022-12-08T02:42:36.400Z,63.40
2022-12-08T02:45:14.802Z,59.30
2022-12-08T02:47:42.325Z,58.72
2022-12-08T02:50:12.408Z,66.47
2022-12-08T02:52:49.287Z,65.80
2022-12-08T02:55:44.828Z,65.50
2022-12-08T02:58:31.694Z,66.55
2022-12-08T03:01:29.405Z,68.15
2022-12-08T03:04:08.711Z,68.82
2022-12-08T03:07:05.332Z,68.57
2022-12-08T03:09:54.309Z,65.35
2022-12-08T03:12:48.791Z,67.15
2022-12-08T03:15:18.896Z,68.85
2022-12-08T03:17:54.925Z,64.88
2022-12-08T03:20:27.194Z,63.40
2022-12-08T03:22:58.586Z,70.03
2022-12-08T03:25:39.474Z,61.50
2022-12-08T03:28:06.567Z,66.35
2022-12-08T03:30:38.837Z,64.78
2022-12-08T03:33:30.563Z,60.22
2022-12-08T03:35:59.872Z,61.90
2022-12-08T03:38:26.761Z,60.40
2022-12-08T03:41:12.233Z,59.95
2022-12-08T03:43:39.043Z,58.10
2022-12-08T03:46:06.148Z,58.80
2022-12-08T03:48:32.979Z,57.70
2022-12-08T03:50:59.631Z,59.65
2022-12-08T03:53:26.703Z,58.88
2022-12-08T03:55:59.227Z,58.17
2022-12-08T03:58:25.976Z,61.00
2022-12-08T04:00:52.808Z,65.22
2022-12-08T04:03:22.608Z,61.28
2022-12-08T04:05:49.416Z,58.97
2022-12-08T04:08:19.342Z,56.80
2022-12-08T04:10:47.526Z,60.60
2022-12-08T04:13:20.736Z,57.22
2022-12-08T04:15:48.674Z,60.60
2022-12-08T04:18:17.379Z,58.15
2022-12-08T04:20:45.124Z,65.82
2022-12-08T04:23:15.876Z,60.17
2022-12-08T04:25:45.496Z,56.45
2022-12-08T04:28:13.173Z,64.53
2022-12-08T04:30:41.886Z,60.67
2022-12-08T04:33:08.579Z,58.42
2022-12-08T04:35:35.371Z,60.05
2022-12-08T04:38:07.882Z,60.45
2022-12-08T04:40:34.615Z,61.78
2022-12-08T04:43:01.371Z,65.53
2022-12-08T04:45:28.317Z,65.07
2022-12-08T04:48:07.771Z,61.95
2022-12-08T04:50:34.863Z,65.43
2022-12-08T04:53:04.319Z,63.92
2022-12-08T04:55:31.569Z,62.50
2022-12-08T04:57:58.324Z,59.75
2022-12-08T05:00:31.121Z,62.13
2022-12-08T05:03:02.955Z,60.67
2022-12-08T05:05:32.443Z,62.13
2022-12-08T05:07:59.292Z,60.40
2022-12-08T05:10:27.375Z,62.95
2022-12-08T05:12:54.204Z,60.88
2022-12-08T05:15:21.009Z,60.03
2022-12-08T05:17:47.802Z,54.22
2022-12-08T05:20:14.693Z,62.00
2022-12-08T05:22:41.478Z,61.78
2022-12-08T05:25:08.393Z,59.78
2022-12-08T05:27:35.774Z,59.85
2022-12-08T05:30:02.974Z,59.85
2022-12-08T05:32:32.600Z,55.08
2022-12-08T05:34:59.512Z,54.05
2022-12-08T05:37:26.291Z,52.67
2022-12-08T05:39:53.693Z,57.38
2022-12-08T05:42:24.617Z,54.33
2022-12-08T05:44:51.824Z,53.95
2022-12-08T05:47:18.658Z,53.97
2022-12-08T05:52:12.062Z,56.65
2022-12-08T05:54:41.960Z,54.90
2022-12-08T05:57:08.945Z,54.75
2022-12-08T05:59:35.655Z,51.15
2022-12-08T06:02:02.587Z,55.28
2022-12-08T06:04:29.397Z,53.60
2022-12-08T06:06:58.186Z,52.70
2022-12-08T06:09:25.308Z,51.97
2022-12-08T06:11:58.109Z,51.67
2022-12-08T06:14:27.719Z,50.38
2022-12-08T06:16:54.524Z,51.05
2022-12-08T06:19:21.356Z,48.85
2022-12-08T06:21:47.985Z,50.88
2022-12-08T06:24:14.877Z,48.10
2022-12-08T06:26:41.880Z,49.70
2022-12-08T06:29:08.724Z,46.63
2022-12-08T06:31:35.817Z,48.75
2022-12-08T06:34:02.721Z,48.38
2022-12-08T06:36:30.436Z,47.78
2022-12-08T06:38:57.987Z,43.67
2022-12-08T06:41:25.976Z,45.97
2022-12-08T06:43:58.403Z,45.13
2022-12-08T06:46:25.421Z,44.67
2022-12-08T06:48:52.251Z,42.33
2022-12-08T06:51:20.937Z,42.95
2022-12-08T06:53:54.483Z,43.10
2022-12-08T06:56:24.023Z,43.25
2022-12-08T06:58:52.977Z,43.45
2022-12-08T07:01:20.114Z,43.03
2022-12-08T07:03:48.269Z,46.20
2022-12-08T07:06:20.710Z,43.97
2022-12-08T07:08:47.545Z,42.67
2022-12-08T07:11:19.767Z,47.30
2022-12-08T07:13:48.612Z,47.83
2022-12-08T07:16:18.702Z,44.25
2022-12-08T07:18:45.576Z,46.47
2022-12-08T07:21:15.036Z,45.03
2022-12-08T07:23:42.402Z,47.60
2022-12-08T07:26:12.416Z,44.63
2022-12-08T07:28:40.978Z,40.58
2022-12-08T07:31:19.656Z,47.25
2022-12-08T07:33:46.910Z,45.03
2022-12-08T07:36:13.984Z,43.47
2022-12-08T07:38:40.719Z,48.03
2022-12-08T07:41:12.523Z,47.80
2022-12-08T07:43:42.946Z,48.35
2022-12-08T07:46:16.530Z,49.03
2022-12-08T07:48:43.784Z,49.30
2022-12-08T07:51:13.959Z,48.72
2022-12-08T07:53:43.430Z,50.30
2022-12-08T07:56:13.653Z,48.50
2022-12-08T07:58:42.224Z,47.10
2022-12-08T08:01:20.282Z,47.28
2022-12-08T08:03:47.229Z,47.83
2022-12-08T08:06:13.872Z,49.45
2022-12-08T08:08:40.672Z,50.10
2022-12-08T08:11:15.768Z,51.40
2022-12-08T08:13:49.852Z,50.08
2022-12-08T08:16:16.879Z,52.13
2022-12-08T08:18:43.866Z,49.92
2022-12-08T08:21:43.749Z,52.65
2022-12-08T08:24:00.887Z,47.65
2022-12-08T08:26:27.686Z,51.17
2022-12-08T08:28:58.216Z,53.25
2022-12-08T08:31:27.271Z,53.80
2022-12-08T08:33:56.421Z,55.78
2022-12-08T08:36:23.313Z,51.30
2022-12-08T08:38:50.105Z,53.42
2022-12-08T08:41:16.839Z,52.38
2022-12-08T08:43:44.147Z,51.45
2022-12-08T08:46:11.828Z,53.33
2022-12-08T08:48:38.699Z,54.97
2022-12-08T08:51:16.732Z,54.50
2022-12-08T08:53:43.937Z,56.08
2022-12-08T08:56:12.296Z,54.90
2022-12-08T08:58:39.212Z,57.92
2022-12-08T09:01:08.496Z,57.30
2022-12-08T09:03:35.359Z,55.25
2022-12-08T09:06:05.034Z,55.30
2022-12-08T09:08:32.183Z,55.10
2022-12-08T09:10:58.946Z,55.95
2022-12-08T09:13:26.078Z,57.38
2022-12-08T09:15:52.999Z,52.78
2022-12-08T09:18:19.923Z,56.85
2022-12-08T09:20:46.593Z,58.13
2022-12-08T09:23:13.316Z,56.72
2022-12-08T09:25:44.779Z,56.70
2022-12-08T09:28:12.023Z,54.95
2022-12-08T09:30:39.741Z,55.97
2022-12-08T09:33:08.326Z,57.58
2022-12-08T09:35:35.011Z,58.33
2022-12-08T09:38:01.702Z,56.67
2022-12-08T09:40:30.201Z,61.17
2022-12-08T09:43:19.838Z,58.63
2022-12-08T09:45:48.711Z,55.38
2022-12-08T09:48:23.377Z,58.40
2022-12-08T09:50:58.418Z,58.38
2022-12-08T09:53:35.323Z,58.15
2022-12-08T09:56:39.101Z,59.67
2022-12-08T09:59:21.127Z,57.80
2022-12-08T10:01:48.187Z,56.35
2022-12-08T10:04:26.111Z,58.28
2022-12-08T10:07:05.086Z,60.15
2022-12-08T10:09:56.629Z,60.00
2022-12-08T10:12:31.545Z,61.77
2022-12-08T10:15:22.541Z,55.85
2022-12-08T10:17:51.243Z,59.50
2022-12-08T10:20:20.443Z,60.55
2022-12-08T10:22:52.411Z,60.33
2022-12-08T10:25:34.187Z,61.30
2022-12-08T10:28:00.986Z,60.10
2022-12-08T10:30:27.764Z,61.10
2022-12-08T10:32:54.826Z,56.00
2022-12-08T10:35:23.966Z,57.55
2022-12-08T10:38:06.601Z,62.85
2022-12-08T10:40:45.410Z,60.35
2022-12-08T10:43:25.568Z,57.83
2022-12-08T10:45:52.804Z,64.50
2022-12-08T10:48:23.146Z,64.63
2022-12-08T10:50:55.020Z,65.65
2022-12-08T10:53:29.492Z,61.30
2022-12-08T10:56:02.181Z,60.10
2022-12-08T10:58:43.816Z,64.15
2022-12-08T11:01:33.719Z,65.40
2022-12-08T11:04:03.307Z,63.65
2022-12-08T11:06:38.448Z,63.17
2022-12-08T11:09:18.069Z,61.05
2022-12-08T11:11:56.284Z,66.68
2022-12-08T11:14:33.503Z,60.92
2022-12-08T11:17:10.490Z,65.82
2022-12-08T11:19:39.640Z,64.20
2022-12-08T11:22:32.572Z,68.05
2022-12-08T11:25:05.982Z,68.57
2022-12-08T11:27:36.323Z,61.35
2022-12-08T11:30:15.157Z,66.28
2022-12-08T11:32:44.895Z,65.25
2022-12-08T11:35:39.204Z,63.47
2022-12-08T11:38:24.058Z,64.38
2022-12-08T11:41:00.112Z,68.75
2022-12-08T11:43:36.071Z,67.75
2022-12-08T11:46:17.829Z,70.70
2022-12-08T11:48:47.561Z,69.18
2022-12-08T11:51:22.756Z,63.10
2022-12-08T11:53:53.472Z,72.28
2022-12-08T11:56:33.625Z,73.75
2022-12-08T11:59:23.345Z,71.60
2022-12-08T12:01:50.485Z,72.50
2022-12-08T12:04:38.416Z,70.80
2022-12-08T12:07:38.046Z,64.25
2022-12-08T12:10:23.241Z,71.90
2022-12-08T12:13:29.895Z,71.65
2022-12-08T12:16:25.664Z,70.18
2022-12-08T12:19:00.919Z,70.50
2022-12-08T12:21:37.059Z,67.07
2022-12-08T12:24:35.572Z,72.80
2022-12-08T12:27:17.903Z,70.65
2022-12-08T12:30:13.152Z,72.28
2022-12-08T12:32:51.891Z,67.22
2022-12-08T12:35:41.770Z,69.15
2022-12-08T12:38:47.731Z,71.00
2022-12-08T12:41:19.729Z,67.80
2022-12-08T12:44:24.166Z,64.65
2022-12-08T12:46:54.031Z,66.72
2022-12-08T12:49:39.360Z,60.63
2022-12-08T12:52:19.002Z,71.72
2022-12-08T12:54:54.046Z,73.75
2022-12-08T12:57:20.628Z,71.18
2022-12-08T12:59:55.514Z,74.90
2022-12-08T13:02:25.659Z,61.40
2022-12-08T13:05:18.851Z,67.53
2022-12-08T13:08:02.705Z,70.90
2022-12-08T13:10:33.359Z,74.50
2022-12-08T13:13:16.772Z,73.30
2022-12-08T13:15:46.988Z,72.10
2022-12-08T13:18:39.862Z,70.88
2022-12-08T13:21:09.475Z,71.72
2022-12-08T13:23:47.302Z,70.50
2022-12-08T13:26:30.685Z,63.05
2022-12-08T13:29:08.800Z,69.57
2022-12-08T13:31:35.496Z,66.00
2022-12-08T13:34:06.979Z,69.20
2022-12-08T13:36:39.334Z,69.30
2022-12-08T13:39:17.609Z,68.65
2022-12-08T13:41:53.494Z,69.25
2022-12-08T13:48:14.148Z,68.00
2022-12-08T13:59:30.870Z,68.50
2022-12-08T14:02:15.859Z,68.05
2022-12-08T14:05:16.941Z,70.80
2022-12-08T14:07:34.217Z,67.95
2022-12-08T14:10:03.732Z,71.78
2022-12-08T14:12:33.620Z,72.35
2022-12-08T14:15:06.829Z,68.18
2022-12-08T14:17:42.944Z,73.38
2022-12-08T14:20:20.321Z,72.15
2022-12-08T14:22:52.691Z,69.03
2022-12-08T14:25:21.280Z,74.00
2022-12-08T14:27:48.526Z,72.97
2022-12-08T14:30:28.575Z,73.32
2022-12-08T14:33:01.212Z,69.60
2022-12-08T14:35:35.639Z,73.90
2022-12-08T14:38:05.449Z,68.47
2022-12-08T14:40:41.806Z,71.75
2022-12-08T14:43:13.578Z,74.10
2022-12-08T14:45:50.839Z,69.97
2022-12-08T14:48:23.423Z,70.38
2022-12-08T14:51:18.914Z,71.53
2022-12-08T14:53:46.590Z,68.00
2022-12-08T14:56:26.859Z,71.07
2022-12-08T14:59:05.269Z,68.47
2022-12-08T15:01:32.733Z,69.50
2022-12-08T15:04:28.151Z,69.95
2022-12-08T15:07:17.100Z,71.47
2022-12-08T15:09:49.459Z,70.30
2022-12-08T15:12:27.413Z,65.38
2022-12-08T15:15:02.308Z,69.38
2022-12-08T15:17:42.153Z,69.65
2022-12-08T15:20:46.004Z,67.93
2022-12-08T15:23:21.491Z,71.85
2022-12-08T15:25:49.563Z,62.85
2022-12-08T15:28:19.461Z,66.60
2022-12-08T15:30:47.702Z,67.55
2022-12-08T15:33:14.778Z,67.05
2022-12-08T15:35:42.065Z,67.03
2022-12-08T15:38:21.433Z,67.55
2022-12-08T15:40:48.639Z,66.20
2022-12-08T15:43:15.395Z,67.25
2022-12-08T15:45:56.289Z,65.82
2022-12-08T15:48:27.529Z,67.97
2022-12-08T15:50:55.047Z,69.60
2022-12-08T15:53:23.964Z,64.32
2022-12-08T15:56:26.455Z,70.00
2022-12-08T15:58:56.549Z,71.40
2022-12-08T16:01:26.680Z,69.95
2022-12-08T16:09:44.668Z,69.03
2022-12-08T16:15:59.734Z,69.28
2022-12-08T16:18:27.698Z,68.82
2022-12-08T16:21:22.885Z,65.35
2022-12-08T16:23:43.606Z,63.55
2022-12-08T16:26:28.541Z,66.35
2022-12-08T16:29:04.812Z,63.17
2022-12-08T16:31:37.754Z,62.80
2022-12-08T16:34:04.422Z,63.92
2022-12-08T16:36:31.252Z,66.57
2022-12-08T16:38:59.662Z,66.35
2022-12-08T16:41:49.174Z,60.03
2022-12-08T16:44:16.237Z,66.32
2022-12-08T16:46:43.252Z,60.03
2022-12-08T16:49:13.084Z,73.47
2022-12-08T16:51:42.729Z,73.85
2022-12-08T16:54:09.785Z,71.93
2022-12-08T16:56:36.854Z,59.58
2022-12-08T16:59:04.122Z,72.80
2022-12-08T17:01:32.031Z,72.93
2022-12-08T17:06:45.871Z,73.93
2022-12-08T17:09:12.582Z,74.45
2022-12-08T17:11:43.274Z,72.35
2022-12-08T17:14:14.835Z,71.03
2022-12-08T17:16:43.143Z,72.32
2022-12-08T17:19:10.400Z,73.55
2022-12-08T17:21:37.351Z,72.00
2022-12-08T17:24:04.997Z,68.70
2022-12-08T17:26:31.950Z,69.32
2022-12-08T17:29:03.664Z,69.80
2022-12-08T17:31:34.720Z,68.72
2022-12-08T17:34:03.428Z,71.73
2022-12-08T17:36:34.201Z,68.65
2022-12-08T17:39:05.742Z,60.03
2022-12-08T17:41:33.347Z,61.08
2022-12-08T17:44:00.344Z,67.03
2022-12-08T17:46:28.984Z,66.10
2022-12-08T17:48:55.946Z,64.70
2022-12-08T17:51:22.931Z,69.10
2022-12-08T17:53:49.787Z,67.28
2022-12-08T17:56:21.710Z,70.43
2022-12-08T17:58:54.281Z,67.72
2022-12-08T18:01:23.935Z,69.70
2022-12-08T18:03:51.766Z,70.30
2022-12-08T18:06:18.730Z,71.50
2022-12-08T18:08:46.173Z,67.15
2022-12-08T18:11:17.230Z,68.82
2022-12-08T18:13:47.102Z,67.90
2022-12-08T18:16:17.595Z,69.07
2022-12-08T18:18:44.390Z,67.55
2022-12-08T18:21:19.908Z,66.03
2022-12-08T18:23:51.919Z,68.95
2022-12-08T18:26:19.812Z,66.90
2022-12-08T18:28:47.156Z,58.63
2022-12-08T18:31:20.283Z,55.83
2022-12-08T18:33:48.580Z,57.00
2022-12-08T18:36:21.546Z,65.05
2022-12-08T18:38:48.680Z,58.17
2022-12-08T18:41:21.137Z,66.38
2022-12-08T18:43:47.960Z,52.90
2022-12-08T18:46:17.786Z,67.97
2022-12-08T18:48:47.650Z,67.40
2022-12-08T18:51:19.718Z,69.05
2022-12-08T18:56:34.989Z,59.33
2022-12-08T18:59:11.819Z,60.15
2022-12-08T19:01:40.094Z,55.88
2022-12-08T19:04:28.040Z,58.17
2022-12-08T19:06:58.218Z,66.78
2022-12-08T19:09:32.175Z,68.80
2022-12-08T19:11:59.158Z,67.70
2022-12-08T19:14:28.577Z,65.95
2022-12-08T19:16:56.091Z,69.80
2022-12-08T19:19:22.827Z,68.70
2022-12-08T19:21:52.672Z,67.63
2022-12-08T19:24:24.174Z,63.40
2022-12-08T19:26:52.466Z,62.97
2022-12-08T19:29:19.849Z,60.10
2022-12-08T19:31:46.734Z,67.55
2022-12-08T19:34:14.481Z,70.07
2022-12-08T19:36:47.434Z,66.07
2022-12-08T19:39:38.404Z,53.08
2022-12-08T19:42:37.885Z,58.63
2022-12-08T19:45:12.249Z,60.97
2022-12-08T19:47:43.523Z,64.38
2022-12-08T19:50:33.084Z,66.25
2022-12-08T19:53:00.789Z,54.08
2022-12-08T19:55:28.435Z,56.53
2022-12-08T19:57:56.996Z,62.45
2022-12-08T20:00:26.482Z,66.07
2022-12-08T20:02:54.544Z,62.97
2022-12-08T20:05:22.014Z,63.97
2022-12-08T20:07:56.019Z,53.40
2022-12-08T20:10:36.131Z,56.22
2022-12-08T20:13:25.329Z,62.42
2022-12-08T20:15:58.137Z,56.13
2022-12-08T20:18:28.123Z,64.65
2022-12-08T20:20:57.210Z,56.83
2022-12-08T20:23:27.573Z,58.78
2022-12-08T20:25:56.624Z,59.25
2022-12-08T20:28:23.995Z,52.58
2022-12-08T20:30:53.363Z,64.22
2022-12-08T20:33:22.560Z,63.75
2022-12-08T20:36:00.234Z,56.92
2022-12-08T20:38:30.256Z,52.38
2022-12-08T20:40:59.291Z,58.30
2022-12-08T20:43:29.964Z,61.13
2022-12-08T20:45:58.114Z,49.35
2022-12-08T20:48:28.106Z,57.97
2022-12-08T20:50:57.906Z,53.85
2022-12-08T20:53:25.455Z,59.70
2022-12-08T20:55:52.648Z,59.58
2022-12-08T20:58:19.457Z,56.80
2022-12-08T21:00:46.431Z,51.03
2022-12-08T21:03:14.286Z,51.53
2022-12-08T21:05:46.984Z,54.47
2022-12-08T21:08:15.456Z,60.95
2022-12-08T21:10:44.113Z,58.80
2022-12-08T21:13:11.301Z,62.80
2022-12-08T21:15:38.489Z,52.72
2022-12-08T21:18:05.378Z,52.47
2022-12-08T21:20:32.193Z,60.70
2022-12-08T21:22:59.094Z,59.25
2022-12-08T21:25:26.080Z,65.05
2022-12-08T21:27:52.914Z,65.82
2022-12-08T21:30:19.677Z,63.53
2022-12-08T21:32:46.896Z,66.60
2022-12-08T21:35:14.017Z,68.13
2022-12-08T21:37:42.962Z,65.97
2022-12-08T21:40:10.775Z,67.20
2022-12-08T21:42:44.052Z,63.95
2022-12-08T21:45:27.726Z,63.42
2022-12-08T21:48:10.321Z,54.05
2022-12-08T21:50:42.020Z,65.80
2022-12-08T21:53:08.751Z,56.38
2022-12-08T21:55:39.481Z,59.30
2022-12-08T21:58:06.315Z,64.25
2022-12-08T22:00:33.430Z,67.53
2022-12-08T22:03:00.509Z,52.78
2022-12-08T22:05:27.660Z,60.45
2022-12-08T22:07:54.720Z,52.55
2022-12-08T22:10:25.347Z,53.70
2022-12-08T22:12:52.057Z,62.80
2022-12-08T22:15:19.220Z,64.03
2022-12-08T22:17:49.472Z,63.30
2022-12-08T22:20:17.706Z,54.92
2022-12-08T22:22:55.258Z,53.33
2022-12-08T22:25:28.409Z,60.08
2022-12-08T22:28:25.692Z,61.78
2022-12-08T22:32:14.652Z,64.80
2022-12-08T22:42:59.558Z,64.35
2022-12-08T22:48:51.424Z,63.78
2022-12-08T22:51:32.708Z,66.28
2022-12-08T23:02:40.004Z,60.97
2022-12-08T23:05:36.306Z,62.15
2022-12-08T23:09:43.422Z,63.00
2022-12-08T23:11:15.471Z,64.78
2022-12-08T23:13:53.304Z,53.85
2022-12-08T23:16:29.563Z,60.45
2022-12-08T23:18:59.190Z,61.00
2022-12-08T23:21:25.974Z,61.13
2022-12-08T23:23:52.589Z,64.68
2022-12-08T23:26:20.984Z,65.07
2022-12-08T23:28:52.310Z,66.65
2022-12-08T23:31:20.204Z,63.55
2022-12-08T23:33:50.029Z,61.40
2022-12-08T23:36:21.086Z,58.08
2022-12-08T23:38:48.576Z,63.13
2022-12-08T23:41:16.293Z,62.47
2022-12-08T23:43:51.354Z,60.45
2022-12-08T23:46:21.216Z,59.53
2022-12-08T23:48:48.548Z,62.00
2022-12-08T23:51:15.980Z,56.83
2022-12-08T23:53:43.283Z,61.72
2022-12-08T23:56:13.530Z,59.13
2022-12-08T23:58:43.765Z,59.33
